Licking Creek, Pennsylvania
Current Conditions -  °F | °C
As of 1:53 AM on Monday 24 Nov 2014 (Local Time) from KAOO Reporting Station
Light Rain Light Rain  
Wind Chill: 52°   Ceiling: 900
Heat Index: 52°   Visibility: 5mi
Dew Point: 50°   Wind: 8mph
Humidity: 93%   Direction: 180°S
Pressure: 29.59"   Gusts: NA
Location:  39.9765°N, 78.0835°W
Report Text: KAOO 240653Z AUTO 18007KT 5SM -RA BR OVC009 11/10 A2959 RMK AO2 CIG 006V013 SLP019 P0004 T01110100
Loading
Personal Weather Stations






























Interactive Weather Map New forecast layout! Learn more

10-Day Weather Forecast

Advertisements
Track Severe Weather on mobile